Wading River, NY (11792)

4:39 AM EDT on September 02, 2014 (GMT -0400)
Long Island North Shore | Change Station
CLOSE
Current Station
Personal Weather Station
Location: Wading River, NY
Elevation: 117 ft
Nearby Weather Stations

Elev 117 ft 40.95 °N, 72.84 °W | Updated 4 minutes ago

Partly Cloudy
Partly Cloudy
72.0 °F
Feels Like 72.0 °F
N
0.0
Wind Variable Wind from East
Gusts 1.0 mph

Today
High -- | Low -- °F
--% Chance of Precip.
Yesterday
High -- | Low -- °F
Precip. -- in
6:19 AM 7:22 PM
Waxing Crescent, 49% visible
Pressure 29.91 in
Visibility 3.0 miles
Clouds Mostly Cloudy 200 ft
Dew Point 71 °F
Humidity 98%
Rainfall 0.00 in
Snow Depth Not available.
UV 0 out of 12
Pollen 5.10 out of 12
Ozone Good
Flu Activity Not available.
SPECI KHWV 020816Z AUTO 21003KT 3SM BR BKN002 24/23 A2991 RMK AO2 T02390228 TSNO

More Conditions Fewer Conditions

Pressure 29.91 in
Visibility 3.0 miles
Clouds Mostly Cloudy 200 ft
Dew Point 71 °F
Humidity 98%
Rainfall 0.00 in
Snow Depth Not available.
UV 0 out of 12
Pollen 5.10 out of 12
Ozone Good
Flu Activity Not available.
SPECI KHWV 020816Z AUTO 21003KT 3SM BR BKN002 24/23 A2991 RMK AO2 T02390228 TSNO

More Conditions Fewer Conditions

10-Day Weather Forecast

Almanac

Astronomy

Sep. 02, 2014 Rise Set
Actual Time 6:19 AM EDT 7:22 PM EDT
Civil Twilight 5:50 AM EDT 7:50 PM EDT
Nautical Twilight 5:17 AM EDT 8:23 PM EDT
Astronomical Twilight 4:42 AM EDT 8:58 PM EDT
Moon 2:03 PM EDT No Moon Set
Length of Visible Light 13h 59m
Length of Day
13h 03m
Tomorrow will be 2m 37s shorter.
Waxing Crescent, 49% of the Moon is Illuminated
Today
Waxing Crescent
Sep 2
First Quarter
Sep 8
Full
Sep 15
Last Quarter
Sep 24
New

Today's Extremes

State Highs State Lows

Community

WunderPhotos

Upload Photos

1,749,587 photos uploaded!

WunderBlogs® & News

Nearby

Air Quality

  Air Quality AQ Index Pollutant
Yesterday Good
OZONE
Current Good
OZONE
Tuesday Moderate
OZONE
Tuesday Moderate
PM2.5

Snow Depth

Station Depth Elevation
No new snow has been reported.

Earthquake Activity

City Distance Mag. Time & Date
No recent earthquake activity has been reported nearby.
Minimum magnitude displayed is 2.5.

Coastal Water Temperatures

Place Temperature
New London, CT 72.0 °F
Newport, RI 71.1 °F
Quonset Point, RI 72.0 °F
Conimicut Light, RI 73.9 °F
Providence, RI 73.9 °F

Nearby Weather Stations